sensor_id;sensor_type;location;lat;lon;timestamp;P1;durP1;ratioP1;P2;durP2;ratioP2
46318;SDS011;32042;50.916;2.926;2023-12-20T00:01:37;7.33;;;1.53;;
46318;SDS011;32042;50.916;2.926;2023-12-20T00:04:03;4.20;;;1.53;;
46318;SDS011;32042;50.916;2.926;2023-12-20T00:06:30;6.10;;;1.10;;
46318;SDS011;32042;50.916;2.926;2023-12-20T00:08:57;10.53;;;2.03;;
46318;SDS011;32042;50.916;2.926;2023-12-20T00:11:23;9.10;;;1.67;;
46318;SDS011;32042;50.916;2.926;2023-12-20T00:13:49;7.50;;;1.20;;
46318;SDS011;32042;50.916;2.926;2023-12-20T00:16:16;8.50;;;1.97;;
46318;SDS011;32042;50.916;2.926;2023-12-20T00:18:42;5.50;;;1.97;;
46318;SDS011;32042;50.916;2.926;2023-12-20T00:21:08;2.07;;;1.10;;
46318;SDS011;32042;50.916;2.926;2023-12-20T00:23:34;7.67;;;1.63;;
46318;SDS011;32042;50.916;2.926;2023-12-20T00:26:00;7.50;;;1.53;;
46318;SDS011;32042;50.916;2.926;2023-12-20T00:28:26;10.90;;;2.33;;
46318;SDS011;32042;50.916;2.926;2023-12-20T00:30:52;5.30;;;2.17;;
46318;SDS011;32042;50.916;2.926;2023-12-20T00:33:18;9.57;;;2.00;;
46318;SDS011;32042;50.916;2.926;2023-12-20T00:35:44;7.60;;;2.00;;
46318;SDS011;32042;50.916;2.926;2023-12-20T00:38:10;8.90;;;2.10;;
46318;SDS011;32042;50.916;2.926;2023-12-20T00:40:36;8.73;;;1.87;;
46318;SDS011;32042;50.916;2.926;2023-12-20T00:43:02;5.20;;;1.83;;
46318;SDS011;32042;50.916;2.926;2023-12-20T00:45:29;5.10;;;1.33;;
46318;SDS011;32042;50.916;2.926;2023-12-20T00:47:55;5.10;;;1.53;;
46318;SDS011;32042;50.916;2.926;2023-12-20T00:50:21;6.13;;;1.33;;
46318;SDS011;32042;50.916;2.926;2023-12-20T00:52:47;7.07;;;1.67;;
46318;SDS011;32042;50.916;2.926;2023-12-20T00:55:13;5.83;;;1.50;;
46318;SDS011;32042;50.916;2.926;2023-12-20T00:57:39;6.40;;;1.53;;
46318;SDS011;32042;50.916;2.926;2023-12-20T01:00:06;5.63;;;1.30;;
46318;SDS011;32042;50.916;2.926;2023-12-20T01:02:34;9.33;;;1.40;;
46318;SDS011;32042;50.916;2.926;2023-12-20T01:05:01;8.07;;;1.50;;
46318;SDS011;32042;50.916;2.926;2023-12-20T01:07:28;8.40;;;1.50;;
46318;SDS011;32042;50.916;2.926;2023-12-20T01:09:54;6.20;;;1.67;;
46318;SDS011;32042;50.916;2.926;2023-12-20T01:12:20;4.93;;;1.30;;
46318;SDS011;32042;50.916;2.926;2023-12-20T01:14:46;4.03;;;1.47;;
46318;SDS011;32042;50.916;2.926;2023-12-20T01:17:12;7.50;;;1.53;;
46318;SDS011;32042;50.916;2.926;2023-12-20T01:19:38;7.87;;;1.67;;
46318;SDS011;32042;50.916;2.926;2023-12-20T01:22:04;7.73;;;1.43;;
46318;SDS011;32042;50.916;2.926;2023-12-20T01:24:30;9.23;;;1.87;;
46318;SDS011;32042;50.916;2.926;2023-12-20T01:26:57;6.00;;;1.50;;
46318;SDS011;32042;50.916;2.926;2023-12-20T01:29:23;7.17;;;1.43;;
46318;SDS011;32042;50.916;2.926;2023-12-20T01:31:49;2.33;;;1.30;;
46318;SDS011;32042;50.916;2.926;2023-12-20T01:34:15;5.73;;;1.37;;
46318;SDS011;32042;50.916;2.926;2023-12-20T01:36:41;5.30;;;1.83;;
46318;SDS011;32042;50.916;2.926;2023-12-20T01:39:07;6.50;;;1.67;;
46318;SDS011;32042;50.916;2.926;2023-12-20T01:41:33;6.90;;;1.67;;
46318;SDS011;32042;50.916;2.926;2023-12-20T01:43:59;4.77;;;1.70;;
46318;SDS011;32042;50.916;2.926;2023-12-20T01:46:25;5.03;;;1.70;;
46318;SDS011;32042;50.916;2.926;2023-12-20T01:48:51;12.63;;;2.27;;
46318;SDS011;32042;50.916;2.926;2023-12-20T01:51:18;7.17;;;1.97;;
46318;SDS011;32042;50.916;2.926;2023-12-20T01:53:45;6.37;;;1.63;;
46318;SDS011;32042;50.916;2.926;2023-12-20T01:56:12;7.67;;;2.53;;
46318;SDS011;32042;50.916;2.926;2023-12-20T01:58:39;8.63;;;2.50;;
46318;SDS011;32042;50.916;2.926;2023-12-20T02:01:08;6.60;;;1.90;;
46318;SDS011;32042;50.916;2.926;2023-12-20T02:03:34;7.33;;;1.90;;
46318;SDS011;32042;50.916;2.926;2023-12-20T02:06:03;7.63;;;2.00;;
46318;SDS011;32042;50.916;2.926;2023-12-20T02:08:30;7.27;;;1.60;;
46318;SDS011;32042;50.916;2.926;2023-12-20T02:10:56;3.57;;;1.60;;
46318;SDS011;32042;50.916;2.926;2023-12-20T02:13:22;12.03;;;1.80;;
46318;SDS011;32042;50.916;2.926;2023-12-20T02:15:48;3.23;;;1.23;;
46318;SDS011;32042;50.916;2.926;2023-12-20T02:18:14;4.73;;;1.83;;
46318;SDS011;32042;50.916;2.926;2023-12-20T02:20:41;3.73;;;1.30;;
46318;SDS011;32042;50.916;2.926;2023-12-20T02:23:08;7.83;;;1.97;;
46318;SDS011;32042;50.916;2.926;2023-12-20T02:25:34;6.37;;;1.40;;
46318;SDS011;32042;50.916;2.926;2023-12-20T02:28:00;7.97;;;1.70;;
46318;SDS011;32042;50.916;2.926;2023-12-20T02:30:26;8.93;;;1.50;;
46318;SDS011;32042;50.916;2.926;2023-12-20T02:32:52;5.43;;;1.77;;
46318;SDS011;32042;50.916;2.926;2023-12-20T02:35:19;6.77;;;1.57;;
46318;SDS011;32042;50.916;2.926;2023-12-20T02:37:45;15.60;;;1.80;;
46318;SDS011;32042;50.916;2.926;2023-12-20T02:40:11;5.83;;;1.50;;
46318;SDS011;32042;50.916;2.926;2023-12-20T02:42:37;9.13;;;2.33;;
46318;SDS011;32042;50.916;2.926;2023-12-20T02:45:03;8.07;;;1.57;;
46318;SDS011;32042;50.916;2.926;2023-12-20T02:47:29;11.87;;;2.50;;
46318;SDS011;32042;50.916;2.926;2023-12-20T02:49:56;4.23;;;1.90;;
46318;SDS011;32042;50.916;2.926;2023-12-20T02:52:25;6.37;;;2.10;;
46318;SDS011;32042;50.916;2.926;2023-12-20T02:54:51;5.50;;;1.23;;
46318;SDS011;32042;50.916;2.926;2023-12-20T02:57:17;6.07;;;1.33;;
46318;SDS011;32042;50.916;2.926;2023-12-20T02:59:43;7.87;;;2.10;;
46318;SDS011;32042;50.916;2.926;2023-12-20T03:02:09;8.07;;;1.93;;
46318;SDS011;32042;50.916;2.926;2023-12-20T03:04:35;5.23;;;1.33;;
46318;SDS011;32042;50.916;2.926;2023-12-20T03:07:01;10.07;;;2.17;;
46318;SDS011;32042;50.916;2.926;2023-12-20T03:09:32;7.17;;;1.97;;
46318;SDS011;32042;50.916;2.926;2023-12-20T03:11:58;7.67;;;1.70;;
46318;SDS011;32042;50.916;2.926;2023-12-20T03:14:24;4.63;;;1.73;;
46318;SDS011;32042;50.916;2.926;2023-12-20T03:16:50;7.97;;;1.83;;
46318;SDS011;32042;50.916;2.926;2023-12-20T03:19:17;10.57;;;2.53;;
46318;SDS011;32042;50.916;2.926;2023-12-20T03:21:44;8.87;;;1.63;;
46318;SDS011;32042;50.916;2.926;2023-12-20T03:24:10;7.77;;;1.80;;
46318;SDS011;32042;50.916;2.926;2023-12-20T03:26:36;10.53;;;1.83;;
46318;SDS011;32042;50.916;2.926;2023-12-20T03:29:02;6.70;;;1.53;;
46318;SDS011;32042;50.916;2.926;2023-12-20T03:31:29;5.03;;;1.17;;
46318;SDS011;32042;50.916;2.926;2023-12-20T03:33:55;8.17;;;1.80;;
46318;SDS011;32042;50.916;2.926;2023-12-20T03:36:21;4.97;;;1.40;;
46318;SDS011;32042;50.916;2.926;2023-12-20T03:38:47;9.77;;;1.63;;
46318;SDS011;32042;50.916;2.926;2023-12-20T03:41:13;7.73;;;1.37;;
46318;SDS011;32042;50.916;2.926;2023-12-20T03:43:39;5.70;;;1.97;;
46318;SDS011;32042;50.916;2.926;2023-12-20T03:46:05;6.53;;;1.50;;
46318;SDS011;32042;50.916;2.926;2023-12-20T03:48:31;8.77;;;2.70;;
46318;SDS011;32042;50.916;2.926;2023-12-20T03:50:57;8.83;;;1.80;;
46318;SDS011;32042;50.916;2.926;2023-12-20T03:53:23;10.23;;;2.20;;
46318;SDS011;32042;50.916;2.926;2023-12-20T03:55:49;11.57;;;2.10;;
46318;SDS011;32042;50.916;2.926;2023-12-20T03:58:15;7.47;;;1.50;;
46318;SDS011;32042;50.916;2.926;2023-12-20T04:00:41;10.83;;;1.67;;
46318;SDS011;32042;50.916;2.926;2023-12-20T04:03:09;6.87;;;1.60;;
46318;SDS011;32042;50.916;2.926;2023-12-20T04:05:37;8.13;;;1.60;;
46318;SDS011;32042;50.916;2.926;2023-12-20T04:08:04;8.17;;;1.53;;
46318;SDS011;32042;50.916;2.926;2023-12-20T04:10:30;4.90;;;1.60;;
46318;SDS011;32042;50.916;2.926;2023-12-20T04:12:56;3.90;;;1.60;;
46318;SDS011;32042;50.916;2.926;2023-12-20T04:15:22;7.67;;;1.70;;
46318;SDS011;32042;50.916;2.926;2023-12-20T04:17:48;5.77;;;1.33;;
46318;SDS011;32042;50.916;2.926;2023-12-20T04:20:14;14.00;;;1.90;;
46318;SDS011;32042;50.916;2.926;2023-12-20T04:22:40;15.23;;;2.53;;
46318;SDS011;32042;50.916;2.926;2023-12-20T04:25:07;5.00;;;1.40;;
46318;SDS011;32042;50.916;2.926;2023-12-20T04:27:33;7.63;;;1.13;;
46318;SDS011;32042;50.916;2.926;2023-12-20T04:29:59;7.47;;;1.57;;
46318;SDS011;32042;50.916;2.926;2023-12-20T04:32:26;8.30;;;1.50;;
46318;SDS011;32042;50.916;2.926;2023-12-20T04:34:52;5.00;;;1.37;;
46318;SDS011;32042;50.916;2.926;2023-12-20T04:37:18;7.07;;;1.57;;
46318;SDS011;32042;50.916;2.926;2023-12-20T04:39:44;5.93;;;2.17;;
46318;SDS011;32042;50.916;2.926;2023-12-20T04:42:10;5.30;;;1.40;;
46318;SDS011;32042;50.916;2.926;2023-12-20T04:44:36;6.13;;;1.70;;
46318;SDS011;32042;50.916;2.926;2023-12-20T04:47:02;13.73;;;1.30;;
46318;SDS011;32042;50.916;2.926;2023-12-20T04:49:28;10.93;;;1.83;;
46318;SDS011;32042;50.916;2.926;2023-12-20T04:51:54;8.93;;;1.33;;
46318;SDS011;32042;50.916;2.926;2023-12-20T04:54:21;9.50;;;1.87;;
46318;SDS011;32042;50.916;2.926;2023-12-20T04:56:47;8.07;;;1.53;;
46318;SDS011;32042;50.916;2.926;2023-12-20T04:59:13;8.13;;;1.30;;
46318;SDS011;32042;50.916;2.926;2023-12-20T05:01:40;6.47;;;1.60;;
46318;SDS011;32042;50.916;2.926;2023-12-20T05:04:06;8.70;;;1.93;;
46318;SDS011;32042;50.916;2.926;2023-12-20T05:06:32;5.90;;;1.20;;
46318;SDS011;32042;50.916;2.926;2023-12-20T05:08:59;6.53;;;1.50;;
46318;SDS011;32042;50.916;2.926;2023-12-20T05:11:25;9.07;;;1.47;;
46318;SDS011;32042;50.916;2.926;2023-12-20T05:13:51;10.63;;;1.30;;
46318;SDS011;32042;50.916;2.926;2023-12-20T05:16:17;13.63;;;1.87;;
46318;SDS011;32042;50.916;2.926;2023-12-20T05:18:44;9.53;;;1.70;;
46318;SDS011;32042;50.916;2.926;2023-12-20T05:21:10;16.57;;;2.23;;
46318;SDS011;32042;50.916;2.926;2023-12-20T05:23:36;5.10;;;1.20;;
46318;SDS011;32042;50.916;2.926;2023-12-20T05:26:02;6.87;;;1.50;;
46318;SDS011;32042;50.916;2.926;2023-12-20T05:28:29;11.33;;;1.93;;
46318;SDS011;32042;50.916;2.926;2023-12-20T05:30:55;8.10;;;1.30;;
46318;SDS011;32042;50.916;2.926;2023-12-20T05:33:21;4.73;;;1.40;;
46318;SDS011;32042;50.916;2.926;2023-12-20T05:35:47;8.37;;;2.27;;
46318;SDS011;32042;50.916;2.926;2023-12-20T05:38:13;7.40;;;1.77;;
46318;SDS011;32042;50.916;2.926;2023-12-20T05:40:39;7.90;;;1.57;;
46318;SDS011;32042;50.916;2.926;2023-12-20T05:43:05;7.43;;;1.50;;
46318;SDS011;32042;50.916;2.926;2023-12-20T05:45:31;8.60;;;1.40;;
46318;SDS011;32042;50.916;2.926;2023-12-20T05:47:57;7.20;;;1.93;;
46318;SDS011;32042;50.916;2.926;2023-12-20T05:50:23;7.07;;;1.80;;
46318;SDS011;32042;50.916;2.926;2023-12-20T05:52:50;7.17;;;1.60;;
46318;SDS011;32042;50.916;2.926;2023-12-20T05:55:16;7.00;;;1.37;;
46318;SDS011;32042;50.916;2.926;2023-12-20T05:57:42;9.60;;;1.73;;
46318;SDS011;32042;50.916;2.926;2023-12-20T06:00:08;7.83;;;1.50;;
46318;SDS011;32042;50.916;2.926;2023-12-20T06:02:35;11.00;;;2.03;;
46318;SDS011;32042;50.916;2.926;2023-12-20T06:05:02;7.83;;;1.50;;
46318;SDS011;32042;50.916;2.926;2023-12-20T06:07:28;6.53;;;1.47;;
46318;SDS011;32042;50.916;2.926;2023-12-20T06:09:54;12.17;;;2.40;;
46318;SDS011;32042;50.916;2.926;2023-12-20T06:12:20;10.03;;;1.87;;
46318;SDS011;32042;50.916;2.926;2023-12-20T06:14:47;10.27;;;1.60;;
46318;SDS011;32042;50.916;2.926;2023-12-20T06:17:13;5.37;;;1.50;;
46318;SDS011;32042;50.916;2.926;2023-12-20T06:19:39;9.90;;;2.10;;
46318;SDS011;32042;50.916;2.926;2023-12-20T06:22:05;7.17;;;1.60;;
46318;SDS011;32042;50.916;2.926;2023-12-20T06:24:31;5.60;;;1.30;;
46318;SDS011;32042;50.916;2.926;2023-12-20T06:26:59;7.43;;;1.60;;
46318;SDS011;32042;50.916;2.926;2023-12-20T06:29:25;4.27;;;1.30;;
46318;SDS011;32042;50.916;2.926;2023-12-20T06:31:51;11.43;;;1.57;;
46318;SDS011;32042;50.916;2.926;2023-12-20T06:34:17;6.60;;;1.63;;
46318;SDS011;32042;50.916;2.926;2023-12-20T06:36:43;6.47;;;1.33;;
46318;SDS011;32042;50.916;2.926;2023-12-20T06:39:09;10.57;;;1.77;;
46318;SDS011;32042;50.916;2.926;2023-12-20T06:41:37;4.53;;;1.40;;
46318;SDS011;32042;50.916;2.926;2023-12-20T06:44:03;10.20;;;1.50;;
46318;SDS011;32042;50.916;2.926;2023-12-20T06:46:29;7.60;;;1.50;;
46318;SDS011;32042;50.916;2.926;2023-12-20T06:48:55;9.10;;;1.73;;
46318;SDS011;32042;50.916;2.926;2023-12-20T06:51:21;10.93;;;1.67;;
46318;SDS011;32042;50.916;2.926;2023-12-20T06:53:50;5.87;;;1.30;;
46318;SDS011;32042;50.916;2.926;2023-12-20T06:56:16;5.93;;;1.50;;
46318;SDS011;32042;50.916;2.926;2023-12-20T06:58:42;6.90;;;1.67;;
46318;SDS011;32042;50.916;2.926;2023-12-20T07:01:12;8.10;;;1.93;;
46318;SDS011;32042;50.916;2.926;2023-12-20T07:03:38;8.83;;;1.70;;
46318;SDS011;32042;50.916;2.926;2023-12-20T07:06:05;5.63;;;1.50;;
46318;SDS011;32042;50.916;2.926;2023-12-20T07:08:31;9.73;;;2.07;;
46318;SDS011;32042;50.916;2.926;2023-12-20T07:10:57;7.00;;;1.77;;
46318;SDS011;32042;50.916;2.926;2023-12-20T07:13:24;10.60;;;1.93;;
46318;SDS011;32042;50.916;2.926;2023-12-20T07:15:50;7.97;;;1.53;;
46318;SDS011;32042;50.916;2.926;2023-12-20T07:18:16;14.93;;;2.43;;
46318;SDS011;32042;50.916;2.926;2023-12-20T07:20:42;7.60;;;1.77;;
46318;SDS011;32042;50.916;2.926;2023-12-20T07:23:08;6.90;;;1.50;;
46318;SDS011;32042;50.916;2.926;2023-12-20T07:25:34;8.57;;;1.93;;
46318;SDS011;32042;50.916;2.926;2023-12-20T07:28:00;5.63;;;1.73;;
46318;SDS011;32042;50.916;2.926;2023-12-20T07:30:26;4.60;;;1.70;;
46318;SDS011;32042;50.916;2.926;2023-12-20T07:32:53;11.23;;;1.80;;
46318;SDS011;32042;50.916;2.926;2023-12-20T07:35:19;9.77;;;1.40;;
46318;SDS011;32042;50.916;2.926;2023-12-20T07:37:45;10.57;;;1.60;;
46318;SDS011;32042;50.916;2.926;2023-12-20T07:40:11;12.17;;;2.00;;
46318;SDS011;32042;50.916;2.926;2023-12-20T07:42:37;8.27;;;1.97;;
46318;SDS011;32042;50.916;2.926;2023-12-20T07:45:03;7.87;;;1.97;;
46318;SDS011;32042;50.916;2.926;2023-12-20T07:47:29;8.63;;;2.23;;
46318;SDS011;32042;50.916;2.926;2023-12-20T07:49:55;8.80;;;2.23;;
46318;SDS011;32042;50.916;2.926;2023-12-20T07:52:22;6.57;;;2.17;;
46318;SDS011;32042;50.916;2.926;2023-12-20T07:54:48;5.07;;;2.00;;
46318;SDS011;32042;50.916;2.926;2023-12-20T07:57:14;10.77;;;2.77;;
46318;SDS011;32042;50.916;2.926;2023-12-20T07:59:40;9.70;;;2.10;;
46318;SDS011;32042;50.916;2.926;2023-12-20T08:02:06;7.83;;;1.90;;
46318;SDS011;32042;50.916;2.926;2023-12-20T08:04:33;4.23;;;1.90;;
46318;SDS011;32042;50.916;2.926;2023-12-20T08:06:59;8.13;;;2.00;;
46318;SDS011;32042;50.916;2.926;2023-12-20T08:09:25;9.57;;;2.20;;
46318;SDS011;32042;50.916;2.926;2023-12-20T08:11:52;8.47;;;1.87;;
46318;SDS011;32042;50.916;2.926;2023-12-20T08:14:18;7.47;;;1.37;;
46318;SDS011;32042;50.916;2.926;2023-12-20T08:16:44;7.00;;;1.70;;
46318;SDS011;32042;50.916;2.926;2023-12-20T08:19:10;8.33;;;1.80;;
46318;SDS011;32042;50.916;2.926;2023-12-20T08:21:36;8.27;;;2.67;;
46318;SDS011;32042;50.916;2.926;2023-12-20T08:24:02;7.30;;;1.57;;
46318;SDS011;32042;50.916;2.926;2023-12-20T08:26:28;11.17;;;1.33;;
46318;SDS011;32042;50.916;2.926;2023-12-20T08:28:54;7.67;;;1.60;;
46318;SDS011;32042;50.916;2.926;2023-12-20T08:31:20;8.13;;;1.83;;
46318;SDS011;32042;50.916;2.926;2023-12-20T08:33:47;6.17;;;1.40;;
46318;SDS011;32042;50.916;2.926;2023-12-20T08:36:14;5.57;;;1.30;;
46318;SDS011;32042;50.916;2.926;2023-12-20T08:38:40;6.13;;;1.60;;
46318;SDS011;32042;50.916;2.926;2023-12-20T08:41:06;8.37;;;1.90;;
46318;SDS011;32042;50.916;2.926;2023-12-20T08:43:35;7.40;;;1.93;;
46318;SDS011;32042;50.916;2.926;2023-12-20T08:46:01;13.87;;;2.43;;
46318;SDS011;32042;50.916;2.926;2023-12-20T08:48:28;10.00;;;2.13;;
46318;SDS011;32042;50.916;2.926;2023-12-20T08:50:54;15.53;;;2.07;;
46318;SDS011;32042;50.916;2.926;2023-12-20T08:53:20;10.63;;;1.97;;
46318;SDS011;32042;50.916;2.926;2023-12-20T08:55:46;9.73;;;1.47;;
46318;SDS011;32042;50.916;2.926;2023-12-20T08:58:13;14.50;;;6.47;;
46318;SDS011;32042;50.916;2.926;2023-12-20T09:00:39;13.20;;;3.13;;
46318;SDS011;32042;50.916;2.926;2023-12-20T09:03:05;9.53;;;2.13;;
46318;SDS011;32042;50.916;2.926;2023-12-20T09:05:31;11.43;;;1.67;;
46318;SDS011;32042;50.916;2.926;2023-12-20T09:07:57;11.83;;;2.17;;
46318;SDS011;32042;50.916;2.926;2023-12-20T09:10:23;8.70;;;1.90;;
46318;SDS011;32042;50.916;2.926;2023-12-20T09:12:50;8.40;;;1.70;;
46318;SDS011;32042;50.916;2.926;2023-12-20T09:15:16;8.27;;;1.77;;
46318;SDS011;32042;50.916;2.926;2023-12-20T09:17:42;10.00;;;1.97;;
46318;SDS011;32042;50.916;2.926;2023-12-20T09:20:09;3.33;;;0.90;;
46318;SDS011;32042;50.916;2.926;2023-12-20T09:22:35;14.67;;;1.93;;
46318;SDS011;32042;50.916;2.926;2023-12-20T09:25:03;5.83;;;1.60;;
46318;SDS011;32042;50.916;2.926;2023-12-20T09:27:29;14.50;;;2.53;;
46318;SDS011;32042;50.916;2.926;2023-12-20T09:29:55;8.83;;;1.53;;
46318;SDS011;32042;50.916;2.926;2023-12-20T09:32:21;8.40;;;1.47;;
46318;SDS011;32042;50.916;2.926;2023-12-20T09:34:47;2.63;;;0.93;;
46318;SDS011;32042;50.916;2.926;2023-12-20T09:37:13;10.67;;;2.17;;
46318;SDS011;32042;50.916;2.926;2023-12-20T09:39:39;4.43;;;0.60;;
46318;SDS011;32042;50.916;2.926;2023-12-20T09:42:06;4.20;;;1.40;;
46318;SDS011;32042;50.916;2.926;2023-12-20T09:44:32;9.43;;;1.63;;
46318;SDS011;32042;50.916;2.926;2023-12-20T09:47:02;6.40;;;1.70;;
46318;SDS011;32042;50.916;2.926;2023-12-20T09:49:29;8.00;;;2.30;;
46318;SDS011;32042;50.916;2.926;2023-12-20T09:51:56;9.43;;;2.03;;
46318;SDS011;32042;50.916;2.926;2023-12-20T09:54:22;5.60;;;1.63;;
46318;SDS011;32042;50.916;2.926;2023-12-20T09:56:49;3.53;;;1.10;;
46318;SDS011;32042;50.916;2.926;2023-12-20T09:59:16;1.37;;;0.67;;
46318;SDS011;32042;50.916;2.926;2023-12-20T10:01:42;4.60;;;2.30;;
46318;SDS011;32042;50.916;2.926;2023-12-20T10:04:09;6.87;;;1.57;;
46318;SDS011;32042;50.916;2.926;2023-12-20T10:06:39;8.83;;;1.60;;
46318;SDS011;32042;50.916;2.926;2023-12-20T10:09:05;3.13;;;0.87;;
46318;SDS011;32042;50.916;2.926;2023-12-20T10:11:31;6.17;;;1.07;;
46318;SDS011;32042;50.916;2.926;2023-12-20T10:14:00;10.20;;;1.60;;
46318;SDS011;32042;50.916;2.926;2023-12-20T10:16:27;5.97;;;1.53;;
46318;SDS011;32042;50.916;2.926;2023-12-20T10:18:53;5.80;;;1.23;;
46318;SDS011;32042;50.916;2.926;2023-12-20T10:21:19;6.37;;;1.10;;
46318;SDS011;32042;50.916;2.926;2023-12-20T10:23:46;4.57;;;1.10;;
46318;SDS011;32042;50.916;2.926;2023-12-20T10:26:20;11.87;;;1.63;;
46318;SDS011;32042;50.916;2.926;2023-12-20T10:28:55;3.57;;;0.70;;
46318;SDS011;32042;50.916;2.926;2023-12-20T10:31:26;6.93;;;1.23;;
46318;SDS011;32042;50.916;2.926;2023-12-20T10:33:52;6.63;;;1.67;;
46318;SDS011;32042;50.916;2.926;2023-12-20T10:36:19;9.30;;;2.00;;
46318;SDS011;32042;50.916;2.926;2023-12-20T10:38:45;7.67;;;0.90;;
46318;SDS011;32042;50.916;2.926;2023-12-20T10:41:12;5.23;;;1.57;;
46318;SDS011;32042;50.916;2.926;2023-12-20T10:43:42;2.67;;;0.70;;
46318;SDS011;32042;50.916;2.926;2023-12-20T10:46:08;9.73;;;1.80;;
46318;SDS011;32042;50.916;2.926;2023-12-20T10:48:34;12.10;;;2.03;;
46318;SDS011;32042;50.916;2.926;2023-12-20T10:51:01;6.50;;;1.50;;
46318;SDS011;32042;50.916;2.926;2023-12-20T10:53:28;7.17;;;1.73;;
46318;SDS011;32042;50.916;2.926;2023-12-20T10:55:55;7.53;;;1.47;;
46318;SDS011;32042;50.916;2.926;2023-12-20T10:58:24;6.57;;;1.53;;
46318;SDS011;32042;50.916;2.926;2023-12-20T11:00:52;10.50;;;2.37;;
46318;SDS011;32042;50.916;2.926;2023-12-20T11:03:21;6.00;;;1.33;;
46318;SDS011;32042;50.916;2.926;2023-12-20T11:05:56;12.87;;;2.03;;
46318;SDS011;32042;50.916;2.926;2023-12-20T11:10:55;7.47;;;1.57;;
46318;SDS011;32042;50.916;2.926;2023-12-20T11:13:26;3.33;;;1.80;;
46318;SDS011;32042;50.916;2.926;2023-12-20T11:15:54;10.20;;;2.40;;
46318;SDS011;32042;50.916;2.926;2023-12-20T11:18:20;6.87;;;1.80;;
46318;SDS011;32042;50.916;2.926;2023-12-20T11:20:54;11.03;;;1.77;;
46318;SDS011;32042;50.916;2.926;2023-12-20T11:23:20;9.53;;;2.17;;
46318;SDS011;32042;50.916;2.926;2023-12-20T11:25:48;3.40;;;1.83;;
46318;SDS011;32042;50.916;2.926;2023-12-20T11:28:14;9.17;;;1.73;;
46318;SDS011;32042;50.916;2.926;2023-12-20T11:33:09;9.57;;;1.63;;
46318;SDS011;32042;50.916;2.926;2023-12-20T11:35:35;8.40;;;1.17;;
46318;SDS011;32042;50.916;2.926;2023-12-20T11:38:01;2.63;;;0.70;;
46318;SDS011;32042;50.916;2.926;2023-12-20T11:40:27;5.97;;;1.10;;
46318;SDS011;32042;50.916;2.926;2023-12-20T11:42:54;9.20;;;2.10;;
46318;SDS011;32042;50.916;2.926;2023-12-20T11:45:20;7.13;;;1.23;;
46318;SDS011;32042;50.916;2.926;2023-12-20T11:47:47;2.83;;;1.03;;
46318;SDS011;32042;50.916;2.926;2023-12-20T11:50:20;7.93;;;2.07;;
46318;SDS011;32042;50.916;2.926;2023-12-20T11:52:46;11.13;;;2.13;;
46318;SDS011;32042;50.916;2.926;2023-12-20T11:55:12;8.60;;;1.40;;
46318;SDS011;32042;50.916;2.926;2023-12-20T11:57:39;6.17;;;1.67;;
46318;SDS011;32042;50.916;2.926;2023-12-20T12:00:05;4.57;;;1.17;;
46318;SDS011;32042;50.916;2.926;2023-12-20T12:02:32;6.67;;;1.73;;
46318;SDS011;32042;50.916;2.926;2023-12-20T12:04:59;4.93;;;1.13;;
46318;SDS011;32042;50.916;2.926;2023-12-20T12:07:25;7.57;;;2.10;;
46318;SDS011;32042;50.916;2.926;2023-12-20T12:09:51;11.23;;;3.90;;
46318;SDS011;32042;50.916;2.926;2023-12-20T12:12:17;6.60;;;1.73;;
46318;SDS011;32042;50.916;2.926;2023-12-20T12:14:45;12.37;;;5.27;;
46318;SDS011;32042;50.916;2.926;2023-12-20T12:17:12;5.93;;;2.37;;
46318;SDS011;32042;50.916;2.926;2023-12-20T12:19:38;15.27;;;5.13;;
46318;SDS011;32042;50.916;2.926;2023-12-20T12:24:36;23.42;;;8.43;;
46318;SDS011;32042;50.916;2.926;2023-12-20T12:27:02;14.10;;;7.17;;
46318;SDS011;32042;50.916;2.926;2023-12-20T12:29:29;10.00;;;4.10;;
46318;SDS011;32042;50.916;2.926;2023-12-20T12:31:55;8.17;;;2.20;;
46318;SDS011;32042;50.916;2.926;2023-12-20T12:34:21;5.23;;;2.27;;
46318;SDS011;32042;50.916;2.926;2023-12-20T12:36:48;6.47;;;3.40;;
46318;SDS011;32042;50.916;2.926;2023-12-20T12:39:14;5.87;;;2.10;;
46318;SDS011;32042;50.916;2.926;2023-12-20T12:41:40;8.47;;;2.63;;
46318;SDS011;32042;50.916;2.926;2023-12-20T12:44:06;8.73;;;2.30;;
46318;SDS011;32042;50.916;2.926;2023-12-20T12:46:33;8.47;;;2.30;;
46318;SDS011;32042;50.916;2.926;2023-12-20T12:48:59;6.70;;;2.83;;
46318;SDS011;32042;50.916;2.926;2023-12-20T12:51:25;7.00;;;3.00;;
46318;SDS011;32042;50.916;2.926;2023-12-20T12:53:51;9.90;;;3.07;;
46318;SDS011;32042;50.916;2.926;2023-12-20T12:56:17;7.13;;;1.60;;
46318;SDS011;32042;50.916;2.926;2023-12-20T12:58:43;8.67;;;2.17;;
46318;SDS011;32042;50.916;2.926;2023-12-20T13:01:09;3.87;;;1.30;;
46318;SDS011;32042;50.916;2.926;2023-12-20T13:03:35;10.97;;;1.80;;
46318;SDS011;32042;50.916;2.926;2023-12-20T13:06:02;4.00;;;1.10;;
46318;SDS011;32042;50.916;2.926;2023-12-20T13:08:30;5.23;;;1.27;;
46318;SDS011;32042;50.916;2.926;2023-12-20T13:10:56;7.53;;;1.90;;
46318;SDS011;32042;50.916;2.926;2023-12-20T13:13:26;6.73;;;1.80;;
46318;SDS011;32042;50.916;2.926;2023-12-20T13:15:52;7.10;;;1.80;;
46318;SDS011;32042;50.916;2.926;2023-12-20T13:18:20;7.97;;;1.10;;
46318;SDS011;32042;50.916;2.926;2023-12-20T13:20:46;9.97;;;1.90;;
46318;SDS011;32042;50.916;2.926;2023-12-20T13:23:12;9.50;;;2.10;;
46318;SDS011;32042;50.916;2.926;2023-12-20T13:25:39;2.07;;;0.80;;
46318;SDS011;32042;50.916;2.926;2023-12-20T13:28:05;2.77;;;1.17;;
46318;SDS011;32042;50.916;2.926;2023-12-20T13:30:31;6.50;;;1.40;;
46318;SDS011;32042;50.916;2.926;2023-12-20T13:32:57;3.30;;;1.37;;
46318;SDS011;32042;50.916;2.926;2023-12-20T13:35:23;7.13;;;1.60;;
46318;SDS011;32042;50.916;2.926;2023-12-20T13:37:49;5.73;;;1.53;;
46318;SDS011;32042;50.916;2.926;2023-12-20T13:40:15;6.13;;;1.03;;
46318;SDS011;32042;50.916;2.926;2023-12-20T13:42:41;5.83;;;1.37;;
46318;SDS011;32042;50.916;2.926;2023-12-20T13:45:07;5.90;;;2.87;;
46318;SDS011;32042;50.916;2.926;2023-12-20T13:47:34;27.63;;;11.63;;
46318;SDS011;32042;50.916;2.926;2023-12-20T13:50:01;23.33;;;8.50;;
46318;SDS011;32042;50.916;2.926;2023-12-20T13:52:27;16.83;;;7.27;;
46318;SDS011;32042;50.916;2.926;2023-12-20T13:54:53;8.57;;;3.07;;
46318;SDS011;32042;50.916;2.926;2023-12-20T13:57:19;7.17;;;2.13;;
46318;SDS011;32042;50.916;2.926;2023-12-20T13:59:45;8.40;;;2.03;;
46318;SDS011;32042;50.916;2.926;2023-12-20T14:02:12;5.63;;;1.73;;
46318;SDS011;32042;50.916;2.926;2023-12-20T14:04:38;3.57;;;1.33;;
46318;SDS011;32042;50.916;2.926;2023-12-20T14:07:04;12.10;;;1.87;;
46318;SDS011;32042;50.916;2.926;2023-12-20T14:09:32;8.63;;;2.10;;
46318;SDS011;32042;50.916;2.926;2023-12-20T14:11:59;1.40;;;1.10;;
46318;SDS011;32042;50.916;2.926;2023-12-20T14:14:25;7.37;;;1.40;;
46318;SDS011;32042;50.916;2.926;2023-12-20T14:16:51;5.17;;;1.23;;
46318;SDS011;32042;50.916;2.926;2023-12-20T14:19:17;4.67;;;1.03;;
46318;SDS011;32042;50.916;2.926;2023-12-20T14:21:43;7.20;;;1.37;;
46318;SDS011;32042;50.916;2.926;2023-12-20T14:24:11;4.83;;;1.30;;
46318;SDS011;32042;50.916;2.926;2023-12-20T14:26:39;5.60;;;1.00;;
46318;SDS011;32042;50.916;2.926;2023-12-20T14:29:06;10.83;;;2.97;;
46318;SDS011;32042;50.916;2.926;2023-12-20T14:31:32;19.70;;;5.30;;
46318;SDS011;32042;50.916;2.926;2023-12-20T14:33:58;25.67;;;4.67;;
46318;SDS011;32042;50.916;2.926;2023-12-20T14:36:26;13.90;;;4.67;;
46318;SDS011;32042;50.916;2.926;2023-12-20T14:38:53;12.20;;;4.57;;
46318;SDS011;32042;50.916;2.926;2023-12-20T14:41:19;6.20;;;1.77;;
46318;SDS011;32042;50.916;2.926;2023-12-20T14:43:45;5.20;;;1.50;;
46318;SDS011;32042;50.916;2.926;2023-12-20T14:46:11;8.10;;;1.63;;
46318;SDS011;32042;50.916;2.926;2023-12-20T14:48:38;6.07;;;1.50;;